Time;durP1;ratioP1;P1;durP2;ratioP2;P2;SDS_P1;SDS_P2;PMS_P1;PMS_P2;Temp;Humidity;BMP_temperature;BMP_pressure;BME280_temperature;BME280_humidity;BME280_pressure;Samples;Min_cycle;Max_cycle;Signal;HPM_P1;HPM_P2
2024/01/10 00:01:03;;;;;;;16.90;14.07;;;-4.60;99.90;;;;;;5013046;28;20472;-74
2024/01/10 00:03:33;;;;;;;16.67;13.37;;;-4.60;99.90;;;;;;5013026;28;20519;-74
2024/01/10 00:06:01;;;;;;;15.23;13.20;;;-4.60;99.90;;;;;;5014196;28;20432;-74
2024/01/10 00:08:32;;;;;;;19.27;14.27;;;-4.60;99.90;;;;;;5012986;28;20442;-74
2024/01/10 00:11:01;;;;;;;14.57;13.07;;;-4.60;99.90;;;;;;5014125;28;20496;-74
2024/01/10 00:13:29;;;;;;;18.37;15.17;;;-4.60;99.90;;;;;;5014154;28;20467;-74
2024/01/10 00:15:58;;;;;;;17.10;13.03;;;-4.70;99.90;;;;;;5012735;28;20473;-74
2024/01/10 00:18:26;;;;;;;17.93;13.97;;;-4.70;99.90;;;;;;5012842;28;20444;-74
2024/01/10 00:20:56;;;;;;;16.33;13.83;;;-4.70;99.90;;;;;;5012623;28;20508;-73
2024/01/10 00:23:25;;;;;;;17.47;14.13;;;-4.70;99.90;;;;;;5012771;28;20883;-74
2024/01/10 00:25:53;;;;;;;16.87;15.10;;;-4.70;99.90;;;;;;5012569;28;20454;-74
2024/01/10 00:28:21;;;;;;;17.97;14.30;;;-4.80;99.90;;;;;;5012645;28;20964;-74
2024/01/10 00:30:49;;;;;;;18.40;15.70;;;-4.80;99.90;;;;;;5012640;28;20469;-74
2024/01/10 00:33:17;;;;;;;16.80;14.83;;;-4.80;99.90;;;;;;5013891;28;20522;-74
2024/01/10 00:35:46;;;;;;;16.60;14.90;;;-4.80;99.90;;;;;;5013839;28;20468;-74
2024/01/10 00:38:15;;;;;;;17.87;15.80;;;-4.80;99.90;;;;;;5012561;28;20449;-74
2024/01/10 00:40:44;;;;;;;16.53;14.83;;;-4.80;99.90;;;;;;5012537;28;21008;-74
2024/01/10 00:43:12;;;;;;;17.47;14.80;;;-4.80;99.90;;;;;;5012923;28;20443;-74
2024/01/10 00:45:40;;;;;;;17.83;14.60;;;-4.80;99.90;;;;;;5013852;28;20586;-74
2024/01/10 00:48:09;;;;;;;17.77;14.40;;;-4.80;99.90;;;;;;5012575;28;20448;-74
2024/01/10 00:50:37;;;;;;;16.43;14.47;;;-4.90;99.90;;;;;;5012413;28;21017;-74
2024/01/10 00:53:05;;;;;;;18.20;16.00;;;-4.90;99.90;;;;;;5013751;28;20933;-74
2024/01/10 00:55:35;;;;;;;16.20;14.67;;;-4.90;99.90;;;;;;5013654;28;20496;-74
2024/01/10 00:58:03;;;;;;;17.03;14.20;;;-4.90;99.90;;;;;;5013872;28;20427;-74
2024/01/10 01:00:33;;;;;;;17.93;15.37;;;-4.90;99.90;;;;;;5012508;28;20563;-74
2024/01/10 01:03:01;;;;;;;17.57;14.90;;;-4.90;99.90;;;;;;5013609;28;20444;-74
2024/01/10 01:05:29;;;;;;;16.23;13.93;;;-4.90;99.90;;;;;;5012490;28;20452;-74
2024/01/10 01:07:57;;;;;;;18.27;14.73;;;-4.90;99.90;;;;;;5012339;28;20444;-74
2024/01/10 01:10:25;;;;;;;16.27;14.30;;;-4.80;99.90;;;;;;5013477;28;20467;-74
2024/01/10 01:12:55;;;;;;;19.13;15.60;;;-4.90;99.90;;;;;;5012243;28;20538;-74
2024/01/10 01:15:24;;;;;;;19.00;15.80;;;-4.80;99.90;;;;;;5012215;28;20467;-74
2024/01/10 01:17:52;;;;;;;19.33;15.40;;;-4.80;99.90;;;;;;5012203;28;20531;-74
2024/01/10 01:20:20;;;;;;;19.87;15.50;;;-4.80;99.90;;;;;;5012097;28;20476;-74
2024/01/10 01:22:49;;;;;;;20.33;17.93;;;-4.70;99.90;;;;;;5012145;28;20791;-74
2024/01/10 01:25:17;;;;;;;19.87;17.70;;;-4.80;99.90;;;;;;5013877;28;20486;-74
2024/01/10 01:27:45;;;;;;;19.73;17.27;;;-4.70;99.90;;;;;;5013316;28;20440;-74
2024/01/10 01:30:15;;;;;;;21.60;18.97;;;-4.70;99.90;;;;;;5012057;28;20470;-74
2024/01/10 01:32:43;;;;;;;21.10;17.83;;;-4.70;99.90;;;;;;5013273;28;20980;-74
2024/01/10 01:35:12;;;;;;;22.00;18.67;;;-4.70;99.90;;;;;;5012036;28;20479;-74
2024/01/10 01:37:40;;;;;;;21.77;18.50;;;-4.70;99.90;;;;;;5012023;28;20443;-74
2024/01/10 01:40:09;;;;;;;20.20;18.10;;;-4.70;99.90;;;;;;5015420;28;21065;-74
2024/01/10 01:42:38;;;;;;;22.40;19.43;;;-4.60;99.90;;;;;;5016902;28;20495;-74
2024/01/10 01:45:07;;;;;;;24.70;20.97;;;-4.60;99.90;;;;;;5016832;28;20451;-74
2024/01/10 01:47:36;;;;;;;22.30;19.90;;;-4.60;99.90;;;;;;5017132;28;20439;-74
2024/01/10 01:50:06;;;;;;;23.17;20.60;;;-4.60;99.90;;;;;;5016743;28;20560;-74
2024/01/10 01:52:35;;;;;;;24.20;19.43;;;-4.60;99.90;;;;;;5016933;28;20532;-74
2024/01/10 01:55:06;;;;;;;25.70;21.17;;;-4.60;99.90;;;;;;5016825;28;20435;-74
2024/01/10 01:57:34;;;;;;;24.90;20.53;;;-4.60;99.90;;;;;;5016974;28;20474;-74
2024/01/10 02:00:04;;;;;;;23.97;20.30;;;-4.60;99.90;;;;;;5016404;28;20468;-74
2024/01/10 02:02:33;;;;;;;22.37;19.70;;;-4.60;99.90;;;;;;5015313;28;20457;-74
2024/01/10 02:05:04;;;;;;;23.47;20.20;;;-4.60;99.90;;;;;;5016583;28;20512;-74
2024/01/10 02:07:32;;;;;;;23.40;20.20;;;-4.60;99.90;;;;;;5016719;28;20430;-74
2024/01/10 02:10:00;;;;;;;22.83;19.43;;;-4.60;99.90;;;;;;5016432;28;20555;-74
2024/01/10 02:12:29;;;;;;;23.03;20.53;;;-4.60;99.90;;;;;;5015181;28;20440;-74
2024/01/10 02:14:58;;;;;;;21.10;18.67;;;-4.60;99.90;;;;;;5015013;28;20456;-74
2024/01/10 02:17:27;;;;;;;21.87;19.03;;;-4.60;99.90;;;;;;5016177;28;20474;-74
2024/01/10 02:20:10;;;;;;;22.57;19.90;;;-4.60;99.90;;;;;;5016231;28;20448;-74
2024/01/10 02:22:38;;;;;;;27.57;20.60;;;-4.60;99.90;;;;;;5016351;28;20432;-74
2024/01/10 02:25:09;;;;;;;22.87;20.10;;;-4.60;99.90;;;;;;5016362;28;20444;-74
2024/01/10 02:27:38;;;;;;;24.40;20.50;;;-4.60;99.90;;;;;;5014982;28;20893;-74
2024/01/10 02:30:08;;;;;;;23.07;20.60;;;-4.60;99.90;;;;;;5015141;28;20510;-74
2024/01/10 02:32:36;;;;;;;23.47;20.97;;;-4.60;99.90;;;;;;5016711;28;20432;-74
2024/01/10 02:35:06;;;;;;;25.33;20.90;;;-4.60;99.90;;;;;;5014975;28;20439;-74
2024/01/10 02:37:34;;;;;;;23.80;21.30;;;-4.60;99.90;;;;;;5014493;28;20468;-74
2024/01/10 02:40:03;;;;;;;25.20;21.67;;;-4.60;99.90;;;;;;5014513;28;20468;-74
2024/01/10 02:42:33;;;;;;;24.47;21.30;;;-4.50;99.90;;;;;;5016280;28;20436;-74
2024/01/10 02:45:01;;;;;;;26.87;21.80;;;-4.60;99.90;;;;;;5014854;28;20478;-74
2024/01/10 02:47:29;;;;;;;23.97;21.23;;;-4.60;99.90;;;;;;5018338;28;20931;-74
2024/01/10 02:49:58;;;;;;;25.13;21.90;;;-4.50;99.90;;;;;;5019470;28;20461;-74
2024/01/10 02:52:26;;;;;;;26.23;22.40;;;-4.50;99.90;;;;;;5020450;28;20451;-74
2024/01/10 02:54:54;;;;;;;24.23;20.73;;;-4.50;99.90;;;;;;5018157;28;20440;-74
2024/01/10 02:57:22;;;;;;;22.53;20.13;;;-4.50;99.90;;;;;;5016836;28;20515;-74
2024/01/10 02:59:52;;;;;;;22.83;20.33;;;-4.60;99.90;;;;;;5017615;28;20563;-74
2024/01/10 03:02:20;;;;;;;27.63;22.03;;;-4.50;99.90;;;;;;5017551;28;20479;-74
2024/01/10 03:04:49;;;;;;;27.37;24.23;;;-4.50;99.90;;;;;;5016997;28;20610;-74
2024/01/10 03:07:17;;;;;;;28.37;22.40;;;-4.50;99.90;;;;;;5015290;28;20449;-74
2024/01/10 03:09:45;;;;;;;25.40;21.97;;;-4.50;99.90;;;;;;5014840;28;20547;-74
2024/01/10 03:12:14;;;;;;;25.00;22.20;;;-4.50;99.90;;;;;;5014390;28;20459;-74
2024/01/10 03:14:42;;;;;;;25.23;22.10;;;-4.60;99.90;;;;;;5014077;28;20522;-74
2024/01/10 03:17:11;;;;;;;24.53;21.07;;;-4.60;99.90;;;;;;5015507;28;20551;-74
2024/01/10 03:19:43;;;;;;;23.87;21.37;;;-4.60;99.90;;;;;;5013900;28;20985;-74
2024/01/10 03:22:12;;;;;;;25.40;22.57;;;-4.50;99.90;;;;;;5015309;28;20427;-74
2024/01/10 03:24:40;;;;;;;27.33;24.33;;;-4.60;99.90;;;;;;5015122;28;20953;-74
2024/01/10 03:27:09;;;;;;;24.03;21.40;;;-4.60;99.90;;;;;;5013831;28;21019;-74
2024/01/10 03:29:38;;;;;;;23.23;20.50;;;-4.60;99.90;;;;;;5014966;28;20457;-74
2024/01/10 03:32:06;;;;;;;24.73;21.80;;;-4.60;99.90;;;;;;5015001;28;20480;-74
2024/01/10 03:34:36;;;;;;;26.10;21.90;;;-4.60;99.90;;;;;;5013598;28;20451;-74
2024/01/10 03:37:05;;;;;;;23.10;20.70;;;-4.60;99.90;;;;;;5015064;28;20817;-74
2024/01/10 03:39:33;;;;;;;25.93;21.97;;;-4.60;99.90;;;;;;5013494;28;20514;-74
2024/01/10 03:42:02;;;;;;;23.83;21.37;;;-4.60;99.90;;;;;;5014813;28;20933;-74
2024/01/10 03:44:30;;;;;;;28.73;22.93;;;-4.60;99.90;;;;;;5013305;28;20498;-74
2024/01/10 03:46:58;;;;;;;25.93;21.07;;;-4.60;99.90;;;;;;5013329;28;20490;-75
2024/01/10 03:49:26;;;;;;;25.50;20.50;;;-4.60;99.90;;;;;;5014697;28;21007;-75
2024/01/10 03:51:56;;;;;;;25.33;22.23;;;-4.60;99.90;;;;;;5014888;28;20528;-74
2024/01/10 03:54:24;;;;;;;24.30;21.80;;;-4.60;99.90;;;;;;5014467;28;20531;-75
2024/01/10 03:56:52;;;;;;;26.20;23.40;;;-4.60;99.90;;;;;;5013192;28;20496;-74
2024/01/10 03:59:20;;;;;;;24.80;22.20;;;-4.60;99.90;;;;;;5014616;28;20460;-75
2024/01/10 04:01:50;;;;;;;25.90;21.60;;;-4.60;99.90;;;;;;5013990;28;20454;-75
2024/01/10 04:04:18;;;;;;;25.17;22.23;;;-4.60;99.90;;;;;;5014352;28;20431;-74
2024/01/10 04:06:46;;;;;;;23.50;21.00;;;-4.60;99.90;;;;;;5013115;28;20827;-74
2024/01/10 04:09:16;;;;;;;23.40;20.73;;;-4.60;99.90;;;;;;5012903;28;20498;-74
2024/01/10 04:11:44;;;;;;;27.20;22.97;;;-4.70;99.90;;;;;;5012952;28;21047;-74
2024/01/10 04:14:12;;;;;;;26.23;23.33;;;-4.70;99.90;;;;;;5012983;28;20459;-75
2024/01/10 04:16:40;;;;;;;25.40;22.60;;;-4.70;99.90;;;;;;5014364;28;20475;-75
2024/01/10 04:19:09;;;;;;;27.80;23.30;;;-4.60;99.90;;;;;;5014085;28;20505;-75
2024/01/10 04:21:37;;;;;;;31.30;25.97;;;-4.70;99.90;;;;;;5014020;28;20436;-75
2024/01/10 04:24:06;;;;;;;27.53;24.63;;;-4.60;99.90;;;;;;5012794;28;20466;-75
2024/01/10 04:26:35;;;;;;;29.80;25.93;;;-4.70;99.90;;;;;;5012755;28;20498;-74
2024/01/10 04:29:04;;;;;;;26.30;23.50;;;-4.70;99.90;;;;;;5012620;28;20509;-75
2024/01/10 04:31:32;;;;;;;30.33;25.80;;;-4.70;99.90;;;;;;5013052;28;20488;-74
2024/01/10 04:34:00;;;;;;;28.03;24.90;;;-4.70;99.90;;;;;;5014272;28;20867;-74
2024/01/10 04:36:28;;;;;;;27.10;24.30;;;-4.70;99.90;;;;;;5013813;28;20447;-75
2024/01/10 04:38:57;;;;;;;28.17;25.13;;;-4.70;99.90;;;;;;5012578;28;20467;-74
2024/01/10 04:41:25;;;;;;;28.00;24.53;;;-4.70;99.90;;;;;;5012855;28;20463;-74
2024/01/10 04:43:55;;;;;;;29.07;25.30;;;-4.70;99.90;;;;;;5013726;28;20494;-74
2024/01/10 04:46:23;;;;;;;31.40;25.03;;;-4.70;99.90;;;;;;5013715;28;20467;-74
2024/01/10 04:48:51;;;;;;;30.87;26.43;;;-4.70;99.90;;;;;;5013902;28;20431;-75
2024/01/10 04:51:20;;;;;;;29.20;24.90;;;-4.70;99.90;;;;;;5012332;28;20487;-75
2024/01/10 04:53:48;;;;;;;27.47;24.53;;;-4.70;99.90;;;;;;5014048;28;20450;-75
2024/01/10 04:56:16;;;;;;;31.33;25.50;;;-4.80;99.90;;;;;;5013692;28;20531;-75
2024/01/10 04:58:46;;;;;;;29.43;26.27;;;-4.80;99.90;;;;;;5013857;28;20468;-74
2024/01/10 05:01:15;;;;;;;32.63;26.57;;;-4.70;99.90;;;;;;5012300;28;20465;-75
2024/01/10 05:03:43;;;;;;;29.77;25.47;;;-4.70;99.90;;;;;;5013708;28;20440;-75
2024/01/10 05:06:12;;;;;;;28.93;25.37;;;-4.80;99.90;;;;;;5013474;28;20450;-75
2024/01/10 05:08:40;;;;;;;31.10;25.60;;;-4.80;99.90;;;;;;5012219;28;20455;-74
2024/01/10 05:11:09;;;;;;;30.97;25.00;;;-4.80;99.90;;;;;;5012174;28;20475;-74
2024/01/10 05:13:37;;;;;;;27.87;24.83;;;-4.80;99.90;;;;;;5013545;28;20470;-75
2024/01/10 05:16:06;;;;;;;29.00;25.80;;;-4.80;99.90;;;;;;5017536;28;20471;-75
2024/01/10 05:18:36;;;;;;;32.63;27.17;;;-4.80;99.90;;;;;;5015950;28;21039;-75
2024/01/10 05:21:04;;;;;;;31.43;25.80;;;-4.80;99.90;;;;;;5017227;28;20455;-75
2024/01/10 05:23:33;;;;;;;31.50;24.93;;;-4.80;99.90;;;;;;5017495;28;20526;-75
2024/01/10 05:26:01;;;;;;;32.60;25.33;;;-4.80;99.90;;;;;;5016080;28;20521;-74
2024/01/10 05:28:29;;;;;;;26.93;24.03;;;-4.80;99.90;;;;;;5015992;28;20502;-75
2024/01/10 05:30:58;;;;;;;31.50;23.83;;;-4.80;99.90;;;;;;5017060;28;20467;-75
2024/01/10 05:33:26;;;;;;;21.90;18.27;;;-4.80;99.90;;;;;;5017064;28;20440;-74
2024/01/10 05:35:56;;;;;;;30.43;24.60;;;-4.70;99.90;;;;;;5017126;28;20435;-75
2024/01/10 05:38:24;;;;;;;33.30;25.93;;;-4.80;99.90;;;;;;5015763;28;20534;-74
2024/01/10 05:40:52;;;;;;;28.83;24.27;;;-4.80;99.90;;;;;;5016116;28;20463;-74
2024/01/10 05:43:21;;;;;;;30.33;25.13;;;-4.80;99.90;;;;;;5015626;28;20554;-74
2024/01/10 05:45:49;;;;;;;30.03;25.47;;;-4.80;99.90;;;;;;5016731;28;20453;-75
2024/01/10 05:48:18;;;;;;;30.97;25.63;;;-4.80;99.90;;;;;;5015693;28;20458;-75
2024/01/10 05:50:46;;;;;;;30.03;23.87;;;-4.80;99.90;;;;;;5015408;28;20470;-75
2024/01/10 05:53:16;;;;;;;29.43;24.53;;;-4.80;99.90;;;;;;5015471;28;20555;-74
2024/01/10 05:55:45;;;;;;;30.67;25.43;;;-4.80;99.90;;;;;;5017323;28;20418;-75
2024/01/10 05:58:13;;;;;;;31.50;25.43;;;-4.80;99.90;;;;;;5015338;28;20480;-74
2024/01/10 06:00:42;;;;;;;29.93;25.70;;;-4.80;99.90;;;;;;5015431;28;20990;-74
2024/01/10 06:03:10;;;;;;;26.87;23.73;;;-4.80;99.90;;;;;;5016620;28;20444;-74
2024/01/10 06:05:38;;;;;;;31.40;25.63;;;-4.80;99.90;;;;;;5015290;28;20443;-75
2024/01/10 06:08:07;;;;;;;27.97;24.47;;;-4.80;99.90;;;;;;5016444;28;20444;-74
2024/01/10 06:10:37;;;;;;;30.43;24.47;;;-4.80;99.90;;;;;;5015075;28;20478;-74
2024/01/10 06:13:05;;;;;;;29.80;24.90;;;-4.70;99.90;;;;;;5015233;28;20869;-75
2024/01/10 06:15:34;;;;;;;28.73;23.60;;;-4.80;99.90;;;;;;5016345;28;20440;-74
2024/01/10 06:18:03;;;;;;;30.53;24.23;;;-4.80;99.90;;;;;;5016453;28;20506;-75
2024/01/10 06:20:32;;;;;;;31.63;25.63;;;-4.80;99.90;;;;;;5016093;28;20797;-74
2024/01/10 06:23:01;;;;;;;31.57;25.17;;;-4.80;99.90;;;;;;5015047;28;20448;-75
2024/01/10 06:25:29;;;;;;;27.67;22.80;;;-4.80;99.90;;;;;;5014304;28;20811;-75
2024/01/10 06:27:58;;;;;;;29.20;24.20;;;-4.80;99.90;;;;;;5015143;28;20484;-74
2024/01/10 06:30:27;;;;;;;29.73;24.30;;;-4.80;99.90;;;;;;5014851;28;20469;-75
2024/01/10 06:32:59;;;;;;;31.77;25.77;;;-4.80;99.90;;;;;;5014900;28;20857;-75
2024/01/10 06:35:27;;;;;;;28.00;23.73;;;-4.80;99.90;;;;;;5014758;28;20448;-75
2024/01/10 06:37:56;;;;;;;31.43;23.40;;;-4.80;99.90;;;;;;5016038;28;20478;-75
2024/01/10 06:40:24;;;;;;;27.60;22.23;;;-4.80;99.90;;;;;;5015850;28;20514;-75
2024/01/10 06:42:52;;;;;;;26.50;22.60;;;-4.80;99.90;;;;;;5015847;28;20438;-75
2024/01/10 06:45:22;;;;;;;28.13;22.83;;;-4.80;99.90;;;;;;5015805;28;20443;-75
2024/01/10 06:47:50;;;;;;;28.60;22.57;;;-4.80;99.90;;;;;;5014523;28;20510;-75
2024/01/10 06:50:20;;;;;;;29.77;22.80;;;-4.80;99.90;;;;;;5014375;28;20463;-75
2024/01/10 06:52:49;;;;;;;27.13;22.00;;;-4.80;99.90;;;;;;5016254;28;20436;-74
2024/01/10 06:55:18;;;;;;;27.30;22.03;;;-4.80;99.90;;;;;;5014852;28;20505;-75
2024/01/10 06:57:48;;;;;;;32.47;23.43;;;-4.80;99.90;;;;;;5015596;28;20490;-75
2024/01/10 07:00:17;;;;;;;29.83;23.20;;;-4.80;99.90;;;;;;5015804;28;20475;-75
2024/01/10 07:02:48;;;;;;;34.27;23.60;;;-4.80;99.90;;;;;;5014146;28;20474;-74
2024/01/10 07:05:17;;;;;;;26.00;20.93;;;-4.80;99.90;;;;;;5016825;28;20420;-75
2024/01/10 07:07:45;;;;;;;26.27;20.57;;;-4.80;99.90;;;;;;5014308;28;20516;-75
2024/01/10 07:10:14;;;;;;;19.87;17.33;;;-4.80;99.90;;;;;;5014320;28;21070;-75
2024/01/10 07:12:42;;;;;;;27.23;19.70;;;-4.80;99.90;;;;;;5015382;28;20452;-75
2024/01/10 07:15:11;;;;;;;22.60;19.07;;;-4.80;99.90;;;;;;5015305;28;20523;-75
2024/01/10 07:17:40;;;;;;;30.37;21.47;;;-4.80;99.90;;;;;;5015889;28;20486;-75
2024/01/10 07:20:12;;;;;;;26.30;20.47;;;-4.80;99.90;;;;;;5014934;28;20480;-75
2024/01/10 07:22:41;;;;;;;26.53;20.87;;;-4.80;99.90;;;;;;5015466;28;20420;-75
2024/01/10 07:25:10;;;;;;;28.83;22.30;;;-4.80;99.90;;;;;;5013758;28;20456;-75
2024/01/10 07:27:38;;;;;;;28.23;21.33;;;-4.80;99.90;;;;;;5015061;28;20506;-75
2024/01/10 07:30:13;;;;;;;29.50;21.10;;;-4.80;99.90;;;;;;5013789;28;20515;-75
2024/01/10 07:32:42;;;;;;;24.50;21.50;;;-4.80;99.90;;;;;;5015354;28;20422;-75
2024/01/10 07:35:13;;;;;;;26.33;21.17;;;-4.80;99.90;;;;;;5013480;28;21039;-75
2024/01/10 07:37:43;;;;;;;27.37;21.20;;;-4.80;99.90;;;;;;5013077;28;20806;-75
2024/01/10 07:40:13;;;;;;;23.73;19.77;;;-4.80;99.90;;;;;;5014871;28;20506;-75
2024/01/10 07:42:43;;;;;;;24.57;20.70;;;-4.80;99.90;;;;;;5015112;28;20427;-75
2024/01/10 07:45:11;;;;;;;28.17;21.20;;;-4.80;99.90;;;;;;5013397;28;20888;-75
2024/01/10 07:47:39;;;;;;;23.03;20.13;;;-4.80;99.90;;;;;;5014913;28;20438;-75
2024/01/10 07:50:09;;;;;;;29.20;20.10;;;-4.80;99.90;;;;;;5014552;28;20821;-75
2024/01/10 07:52:38;;;;;;;27.37;21.80;;;-4.80;99.90;;;;;;5013390;28;20875;-75
2024/01/10 07:55:09;;;;;;;30.00;20.60;;;-4.80;99.90;;;;;;5013374;28;20483;-75
2024/01/10 07:57:37;;;;;;;28.63;20.53;;;-4.80;99.90;;;;;;5013395;28;20478;-75
2024/01/10 08:00:10;;;;;;;25.03;19.83;;;-4.80;99.90;;;;;;5013017;28;20479;-75
2024/01/10 08:02:39;;;;;;;26.97;21.93;;;-4.80;99.90;;;;;;5014640;28;20425;-75
2024/01/10 08:05:09;;;;;;;27.67;22.17;;;-4.80;99.90;;;;;;5013160;28;20487;-75
2024/01/10 08:07:39;;;;;;;27.83;22.10;;;-4.80;99.90;;;;;;5012998;28;20443;-75
2024/01/10 08:10:09;;;;;;;25.13;20.40;;;-4.80;99.90;;;;;;5013119;28;20570;-75
2024/01/10 08:12:38;;;;;;;27.33;21.73;;;-4.80;99.90;;;;;;5012959;28;20451;-75
2024/01/10 08:15:07;;;;;;;26.77;21.93;;;-4.70;99.90;;;;;;5014220;28;20451;-75
2024/01/10 08:17:37;;;;;;;27.60;22.33;;;-4.70;99.90;;;;;;5012974;28;20436;-74
2024/01/10 08:20:08;;;;;;;25.70;20.37;;;-4.70;99.90;;;;;;5012774;28;20487;-75
2024/01/10 08:22:37;;;;;;;29.20;22.40;;;-4.70;99.90;;;;;;5014160;28;20789;-75
2024/01/10 08:25:08;;;;;;;24.13;21.20;;;-4.70;99.90;;;;;;5012773;28;20451;-75
2024/01/10 08:27:36;;;;;;;30.77;20.53;;;-4.70;99.90;;;;;;5012956;28;20459;-75
2024/01/10 08:30:05;;;;;;;24.10;20.27;;;-4.70;99.90;;;;;;5014981;28;21076;-74
2024/01/10 08:32:35;;;;;;;24.00;20.33;;;-4.70;99.90;;;;;;5012994;28;20452;-75
2024/01/10 08:35:05;;;;;;;28.27;22.93;;;-4.70;99.90;;;;;;5012973;28;20556;-75
2024/01/10 08:37:33;;;;;;;26.60;20.53;;;-4.70;99.90;;;;;;5014163;28;20438;-74
2024/01/10 08:40:06;;;;;;;26.27;20.47;;;-4.60;99.90;;;;;;5012575;28;20565;-75
2024/01/10 08:42:36;;;;;;;29.60;22.80;;;-4.60;99.90;;;;;;5013889;28;20417;-75
2024/01/10 08:45:05;;;;;;;33.13;22.80;;;-4.60;99.90;;;;;;5012464;28;20475;-75
2024/01/10 08:47:34;;;;;;;29.50;19.83;;;-4.60;99.90;;;;;;5012581;28;20478;-75
2024/01/10 08:50:04;;;;;;;29.27;21.00;;;-4.60;99.90;;;;;;5012624;28;20474;-75
2024/01/10 08:52:33;;;;;;;31.83;21.17;;;-4.60;99.90;;;;;;5012523;28;20440;-75
2024/01/10 08:55:01;;;;;;;32.37;22.03;;;-4.50;99.90;;;;;;5013907;28;20438;-75
2024/01/10 08:57:29;;;;;;;29.77;21.17;;;-4.50;99.90;;;;;;5013869;28;20444;-75
2024/01/10 08:59:58;;;;;;;25.53;20.97;;;-4.50;99.90;;;;;;5012303;28;20479;-75
2024/01/10 09:02:28;;;;;;;26.63;20.13;;;-4.50;99.90;;;;;;5012438;28;20502;-75
2024/01/10 09:04:56;;;;;;;28.90;20.63;;;-4.50;99.90;;;;;;5012317;28;20444;-75
2024/01/10 09:07:25;;;;;;;27.00;20.03;;;-4.50;99.90;;;;;;5012372;28;20438;-75
2024/01/10 09:09:53;;;;;;;26.93;19.57;;;-4.40;99.90;;;;;;5012367;28;20570;-75
2024/01/10 09:12:21;;;;;;;31.17;20.87;;;-4.40;99.90;;;;;;5013647;28;20842;-75
2024/01/10 09:14:50;;;;;;;26.83;19.43;;;-4.40;99.90;;;;;;5012331;28;20507;-75
2024/01/10 09:17:20;;;;;;;25.43;18.93;;;-4.30;99.90;;;;;;5012256;28;20444;-75
2024/01/10 09:19:48;;;;;;;25.37;18.30;;;-4.30;99.90;;;;;;5013432;28;20479;-75
2024/01/10 09:22:17;;;;;;;21.40;15.60;;;-4.30;99.90;;;;;;5012278;28;20448;-75
2024/01/10 09:24:45;;;;;;;25.27;18.03;;;-4.20;99.90;;;;;;5012285;28;20454;-75
2024/01/10 09:27:13;;;;;;;28.67;19.20;;;-4.20;99.90;;;;;;5013481;28;20473;-75
2024/01/10 09:29:41;;;;;;;24.50;17.70;;;-4.20;99.90;;;;;;5012071;28;20470;-75
2024/01/10 09:32:11;;;;;;;26.30;17.67;;;-4.20;99.90;;;;;;5013677;28;20446;-75
2024/01/10 09:34:40;;;;;;;24.33;17.87;;;-4.10;99.90;;;;;;5019680;28;20448;-75
2024/01/10 09:37:09;;;;;;;24.73;17.07;;;-4.10;99.90;;;;;;5019070;28;20436;-75
2024/01/10 09:39:37;;;;;;;22.00;17.10;;;-4.10;99.90;;;;;;5017319;28;20575;-75
2024/01/10 09:42:06;;;;;;;27.17;19.00;;;-4.10;99.90;;;;;;5015666;28;20463;-75
2024/01/10 09:44:35;;;;;;;20.43;15.83;;;-4.00;99.90;;;;;;5014536;28;20490;-75
2024/01/10 09:47:03;;;;;;;20.07;16.40;;;-4.00;99.90;;;;;;5014303;28;20436;-75
2024/01/10 09:49:32;;;;;;;23.37;16.90;;;-4.00;99.90;;;;;;5014116;28;20823;-75
2024/01/10 09:52:05;;;;;;;23.90;17.70;;;-4.00;99.90;;;;;;5013254;28;20535;-75
2024/01/10 09:54:36;;;;;;;24.37;17.43;;;-4.00;99.90;;;;;;5013282;28;20842;-75
2024/01/10 09:57:05;;;;;;;24.33;16.73;;;-3.90;99.90;;;;;;5012727;28;20566;-75
2024/01/10 09:59:34;;;;;;;28.03;17.83;;;-3.90;99.90;;;;;;5013629;28;20574;-75
2024/01/10 10:02:04;;;;;;;20.77;14.97;;;-3.90;99.90;;;;;;5017571;28;20523;-75
2024/01/10 10:04:32;;;;;;;20.40;15.10;;;-3.80;99.90;;;;;;5016752;28;20967;-75
2024/01/10 10:07:02;;;;;;;17.10;13.93;;;-3.80;99.90;;;;;;5016998;28;20438;-75
2024/01/10 10:09:32;;;;;;;19.90;15.40;;;-3.80;99.90;;;;;;5015481;28;20576;-75
2024/01/10 10:12:00;;;;;;;20.30;15.50;;;-3.70;99.90;;;;;;5015508;28;21008;-75
2024/01/10 10:14:30;;;;;;;21.23;15.90;;;-3.70;99.90;;;;;;5015507;28;20490;-75
2024/01/10 10:17:15;;;;;;;21.23;15.10;;;-3.70;99.90;;;;;;5016540;28;20440;-75
2024/01/10 10:19:45;;;;;;;20.03;15.30;;;-3.60;99.90;;;;;;5015150;28;21048;-75
2024/01/10 10:22:17;;;;;;;19.27;14.60;;;-3.60;99.90;;;;;;5015376;28;21134;-75
2024/01/10 10:24:50;;;;;;;18.23;14.80;;;-3.50;99.90;;;;;;5015198;28;20455;-75
2024/01/10 10:27:18;;;;;;;20.93;16.10;;;-3.50;99.90;;;;;;5015202;28;20494;-75
2024/01/10 10:29:46;;;;;;;20.20;15.77;;;-3.50;99.90;;;;;;5015254;28;20507;-75
2024/01/10 10:32:18;;;;;;;22.80;15.80;;;-3.40;99.90;;;;;;5015026;28;20453;-75
2024/01/10 10:34:46;;;;;;;20.30;15.30;;;-3.40;99.90;;;;;;5015033;28;20455;-75
2024/01/10 10:37:16;;;;;;;16.60;14.10;;;-3.40;99.90;;;;;;5015066;28;20451;-75
2024/01/10 10:39:44;;;;;;;23.03;13.57;;;-3.30;99.90;;;;;;5015207;28;20527;-75
2024/01/10 10:42:15;;;;;;;18.13;14.47;;;-3.30;99.90;;;;;;5017573;28;20840;-75
2024/01/10 10:44:45;;;;;;;19.03;14.10;;;-3.30;99.90;;;;;;5015373;28;20559;-76
2024/01/10 10:47:18;;;;;;;17.80;13.20;;;-3.30;99.90;;;;;;5016488;28;20482;-75
2024/01/10 10:49:54;;;;;;;16.03;14.23;;;-3.30;99.90;;;;;;5014822;28;20480;-75
2024/01/10 10:52:25;;;;;;;18.40;14.17;;;-3.20;99.90;;;;;;5015313;28;20789;-75
2024/01/10 10:54:57;;;;;;;18.20;13.10;;;-3.20;99.90;;;;;;5015862;28;20431;-75
2024/01/10 10:57:27;;;;;;;19.43;14.53;;;-3.20;99.90;;;;;;5016052;28;20459;-75
2024/01/10 10:59:58;;;;;;;15.87;12.23;;;-3.10;99.90;;;;;;5015603;28;20491;-76
2024/01/10 11:02:26;;;;;;;15.23;11.97;;;-3.10;99.90;;;;;;5014591;28;20853;-75
2024/01/10 11:05:00;;;;;;;16.50;13.10;;;-3.10;99.90;;;;;;5015086;28;20440;-76
2024/01/10 11:07:30;;;;;;;16.30;13.17;;;-3.10;99.90;;;;;;5018157;28;20862;-76
2024/01/10 11:10:00;;;;;;;15.07;11.90;;;-3.00;99.90;;;;;;5015433;28;20964;-76
2024/01/10 11:12:43;;;;;;;19.53;13.20;;;-3.10;99.90;;;;;;5014290;28;20807;-76
2024/01/10 11:15:27;;;;;;;15.27;12.90;;;-3.00;99.90;;;;;;5013950;28;20483;-76
2024/01/10 11:18:11;;;;;;;13.90;11.03;;;-3.00;99.90;;;;;;5014090;28;20472;-76
2024/01/10 11:21:02;;;;;;;14.80;11.47;;;-2.90;99.90;;;;;;5015728;28;20888;-76
2024/01/10 11:23:40;;;;;;;15.30;11.37;;;-2.90;99.90;;;;;;5013746;28;20502;-75
2024/01/10 11:26:09;;;;;;;13.57;11.40;;;-2.80;99.90;;;;;;5014302;28;20462;-76
2024/01/10 11:28:38;;;;;;;14.90;10.63;;;-2.80;99.90;;;;;;5015182;28;20475;-76
2024/01/10 11:31:08;;;;;;;13.67;11.20;;;-2.80;99.90;;;;;;5013596;28;20854;-76
2024/01/10 11:33:39;;;;;;;14.80;11.20;;;-2.70;99.90;;;;;;5013615;28;21059;-76
2024/01/10 11:36:14;;;;;;;16.40;12.07;;;-2.70;99.90;;;;;;5014821;28;20432;-76
2024/01/10 11:38:50;;;;;;;17.03;12.67;;;-2.70;99.90;;;;;;5014854;28;20428;-76
2024/01/10 11:41:22;;;;;;;15.33;11.40;;;-2.70;99.90;;;;;;5013425;28;20471;-76
2024/01/10 11:44:40;;;;;;;15.87;13.33;;;-2.60;99.90;;;;;;5013387;28;20440;-76
2024/01/10 11:47:09;;;;;;;14.83;11.30;;;-2.60;99.90;;;;;;5013833;28;20475;-76
2024/01/10 11:49:37;;;;;;;13.70;11.60;;;-2.60;99.90;;;;;;5013149;28;20575;-76
2024/01/10 11:52:07;;;;;;;13.53;11.63;;;-2.60;99.90;;;;;;5013272;28;20539;-76
2024/01/10 11:54:44;;;;;;;15.77;13.10;;;-2.50;99.90;;;;;;5013458;28;21018;-76
2024/01/10 11:57:15;;;;;;;17.50;14.43;;;-2.50;99.90;;;;;;5013163;28;20482;-76
2024/01/10 11:59:45;;;;;;;16.30;12.27;;;-2.50;99.90;;;;;;5012983;28;20466;-76
2024/01/10 12:02:14;;;;;;;16.00;12.77;;;-2.50;99.90;;;;;;5014643;28;20467;-76
2024/01/10 12:04:43;;;;;;;14.40;11.53;;;-2.40;99.90;;;;;;5013185;28;20450;-76
2024/01/10 12:07:17;;;;;;;18.00;14.80;;;-2.40;99.90;;;;;;5012953;28;20988;-76
2024/01/10 12:09:49;;;;;;;22.60;13.80;;;-2.40;99.90;;;;;;5014073;28;20848;-76
2024/01/10 12:12:18;;;;;;;14.83;12.00;;;-2.30;99.90;;;;;;5012902;28;20440;-75
2024/01/10 12:14:46;;;;;;;13.57;10.67;;;-2.30;99.90;;;;;;5012867;28;20443;-76
2024/01/10 12:17:16;;;;;;;16.67;12.50;;;-2.30;99.90;;;;;;5014326;28;20440;-76
2024/01/10 12:19:44;;;;;;;12.57;9.90;;;-2.20;99.90;;;;;;5013925;28;20460;-76
2024/01/10 12:22:15;;;;;;;14.40;10.20;;;-2.20;99.90;;;;;;5013394;28;20456;-76
2024/01/10 12:24:50;;;;;;;15.63;12.30;;;-2.20;99.90;;;;;;5013916;28;20502;-76
2024/01/10 12:27:20;;;;;;;14.40;10.10;;;-2.20;99.90;;;;;;5012718;28;20502;-76
2024/01/10 12:29:51;;;;;;;12.97;9.53;;;-2.10;99.90;;;;;;5012720;28;20887;-75
2024/01/10 12:32:22;;;;;;;12.73;10.07;;;-2.10;99.90;;;;;;5014607;28;20416;-76
2024/01/10 12:34:58;;;;;;;14.47;11.07;;;-2.00;99.90;;;;;;5012595;28;20488;-76
2024/01/10 12:37:27;;;;;;;13.03;9.13;;;-2.00;99.90;;;;;;5013716;28;20511;-76
2024/01/10 12:39:57;;;;;;;14.13;10.00;;;-1.90;99.90;;;;;;5012526;28;20511;-76